Strum, Wisconsin
Current Conditions -  °F | °C
As of 12:56 PM on Thursday 23 Oct 2014 (Local Time) from KEAU Reporting Station
Haze Haze  
Wind Chill: 50°   Ceiling: 400
Heat Index: 50°   Visibility: 6mi
Dew Point: 48°   Wind: 5mph
Humidity: 93%   Direction: 220°SW
Pressure: 30.01"   Gusts: NA
Location:  44.55°N, 91.39°W
Report Text: KEAU 231756Z 22004KT 6SM BR OVC004 10/09 A3001 RMK AO2 SLP165 60017 T01000089 10100 20083 58008
Loading
Personal Weather Stations






























Interactive Weather Map
Tropical Storm Tracking
New forecast layout! Learn more

10-Day Weather Forecast

Advertisements
Track Severe Weather on mobile